Callao, Utah
Current Conditions -  °F | °C
As of 6:35 PM on Friday 19 Dec 2014 (Local Time) from KENV Reporting Station
Overcast Overcast  
Wind Chill: 36°   Ceiling: 7000
Heat Index: 36°   Visibility: 10mi
Dew Point: 27°   Wind: 3mph
Humidity: 70%   Direction: 160°SSE
Pressure: 30.12"   Gusts: NA
Location:  40.0375°N, 113.984°W
Report Text: KENV 200135Z AUTO 16003KT 10SM OVC070 02/M03 A3012 RMK AO1
Loading
Personal Weather Stations






























Interactive Weather Map New forecast layout! Learn more

10-Day Weather Forecast

Advertisements
Track Severe Weather on mobile